Time;durP1;ratioP1;P1;durP2;ratioP2;P2;SDS_P1;SDS_P2;PMS_P1;PMS_P2;Temp;Humidity;BMP_temperature;BMP_pressure;BME280_temperature;BME280_humidity;BME280_pressure;Samples;Min_cycle;Max_cycle;Signal;HPM_P1;HPM_P2
2021/07/29 00:01:18;;;;;;;7.63;6.85;;;19.60;93.60;;;;;;5096485;28;20024;-49
2021/07/29 00:03:44;;;;;;;7.25;6.55;;;19.50;93.50;;;;;;5107309;28;20081;-47
2021/07/29 00:06:14;;;;;;;7.70;6.90;;;19.50;93.70;;;;;;5094860;28;20111;-47
2021/07/29 00:08:40;;;;;;;7.43;6.53;;;19.50;93.80;;;;;;5091654;28;20039;-49
2021/07/29 00:11:06;;;;;;;9.10;6.40;;;19.40;93.90;;;;;;5076049;28;20029;-47
2021/07/29 00:13:31;;;;;;;7.70;6.50;;;19.50;93.70;;;;;;5094516;28;20157;-48
2021/07/29 00:16:02;;;;;;;7.18;6.47;;;19.40;93.70;;;;;;5094960;28;20078;-51
2021/07/29 00:21:11;;;;;;;7.18;6.47;;;19.20;94.10;;;;;;5094540;28;20024;-48
2021/07/29 00:23:37;;;;;;;7.07;6.18;;;19.10;94.30;;;;;;5094622;28;20408;-49
2021/07/29 00:26:03;;;;;;;8.35;6.53;;;19.10;94.10;;;;;;5093930;28;20024;-49
2021/07/29 00:28:28;;;;;;;6.97;6.28;;;19.10;94.10;;;;;;5094154;28;20052;-48
2021/07/29 00:30:54;;;;;;;8.20;6.57;;;19.20;93.90;;;;;;5093235;28;20032;-48
2021/07/29 00:33:19;;;;;;;7.18;6.50;;;19.10;94.10;;;;;;5076456;28;20028;-48
2021/07/29 00:35:45;;;;;;;7.65;6.45;;;19.00;94.20;;;;;;5097092;28;20043;-51
2021/07/29 00:38:10;;;;;;;7.90;6.35;;;19.00;94.20;;;;;;5094600;28;20035;-51
2021/07/29 00:40:36;;;;;;;8.20;6.47;;;19.10;94.10;;;;;;5112898;28;20500;-46
2021/07/29 00:43:01;;;;;;;7.47;6.38;;;19.00;94.20;;;;;;5111520;28;20032;-52
2021/07/29 00:45:27;;;;;;;9.05;6.05;;;19.10;94.00;;;;;;5111710;28;20070;-50
2021/07/29 00:47:53;;;;;;;8.50;6.57;;;19.10;94.10;;;;;;5113304;28;20035;-47
2021/07/29 00:50:19;;;;;;;7.85;6.53;;;19.10;94.30;;;;;;5113677;28;20028;-51
2021/07/29 00:52:47;;;;;;;8.07;5.97;;;19.10;94.00;;;;;;5114005;28;20395;-47
2021/07/29 00:55:13;;;;;;;7.55;6.40;;;19.20;93.90;;;;;;5111073;28;20016;-52
2021/07/29 00:57:39;;;;;;;7.93;6.05;;;19.10;93.90;;;;;;5113520;28;20115;-46
2021/07/29 01:00:05;;;;;;;6.40;5.80;;;19.20;93.90;;;;;;5113556;28;20107;-48
2021/07/29 01:02:31;;;;;;;7.20;5.65;;;19.20;93.80;;;;;;5113372;28;20111;-45
2021/07/29 01:04:57;;;;;;;8.82;6.55;;;19.20;93.70;;;;;;5113481;28;20087;-49
2021/07/29 01:07:23;;;;;;;7.78;6.22;;;19.30;93.60;;;;;;5106987;28;20403;-47
2021/07/29 01:09:48;;;;;;;7.28;6.15;;;19.20;93.70;;;;;;5093431;28;20067;-51
2021/07/29 01:12:14;;;;;;;6.60;6.00;;;19.20;93.60;;;;;;5092671;28;20036;-48
2021/07/29 01:14:39;;;;;;;6.45;5.75;;;19.30;93.60;;;;;;5093824;28;20047;-45
2021/07/29 01:17:05;;;;;;;6.88;5.93;;;19.30;93.60;;;;;;5093043;28;20043;-50
2021/07/29 01:19:31;;;;;;;7.72;6.28;;;19.30;93.50;;;;;;5085816;28;20035;-52
2021/07/29 01:21:57;;;;;;;8.10;6.22;;;19.30;93.40;;;;;;5093564;28;20023;-51
2021/07/29 01:24:24;;;;;;;7.35;6.10;;;19.40;93.50;;;;;;5093845;28;20081;-51
2021/07/29 01:26:50;;;;;;;10.70;6.93;;;19.40;93.40;;;;;;5092590;28;20032;-47
2021/07/29 01:29:15;;;;;;;6.20;5.60;;;19.40;93.30;;;;;;5093185;28;20047;-48
2021/07/29 01:31:41;;;;;;;5.60;5.10;;;19.40;93.20;;;;;;5093189;28;20020;-52
2021/07/29 01:34:07;;;;;;;6.28;5.68;;;19.50;93.30;;;;;;5093668;28;20051;-48
2021/07/29 01:36:32;;;;;;;6.32;5.72;;;19.50;93.20;;;;;;5092433;28;20440;-52
2021/07/29 01:38:58;;;;;;;6.55;5.95;;;19.50;93.20;;;;;;5092923;28;20530;-48
2021/07/29 01:41:24;;;;;;;7.07;6.28;;;19.50;93.20;;;;;;5092938;28;20044;-49
2021/07/29 01:43:49;;;;;;;6.60;6.00;;;19.50;93.40;;;;;;5076271;28;20048;-49
2021/07/29 01:46:15;;;;;;;9.95;7.47;;;19.40;93.40;;;;;;5084350;28;20039;-51
2021/07/29 01:48:40;;;;;;;8.30;6.75;;;19.30;93.40;;;;;;5078164;28;20475;-53
2021/07/29 01:51:06;;;;;;;7.68;5.75;;;19.30;93.60;;;;;;5093131;28;20547;-49
2021/07/29 01:53:32;;;;;;;7.70;6.30;;;19.20;93.70;;;;;;5092886;28;20036;-49
2021/07/29 01:55:57;;;;;;;7.22;6.10;;;19.30;93.80;;;;;;5093836;28;20119;-48
2021/07/29 01:58:23;;;;;;;7.28;6.05;;;19.30;93.50;;;;;;5075010;28;20032;-49
2021/07/29 02:00:50;;;;;;;6.85;6.18;;;19.10;93.60;;;;;;5093064;28;20035;-45
2021/07/29 02:03:16;;;;;;;7.78;7.07;;;19.10;93.90;;;;;;5093283;28;20394;-48
2021/07/29 02:05:41;;;;;;;7.95;6.03;;;19.10;93.70;;;;;;5092708;28;20387;-48
2021/07/29 02:08:07;;;;;;;8.43;6.22;;;19.10;93.80;;;;;;5092108;28;20082;-50
2021/07/29 02:10:34;;;;;;;7.07;5.72;;;19.10;93.70;;;;;;5091801;28;20040;-51
2021/07/29 02:13:00;;;;;;;9.38;6.05;;;19.10;93.80;;;;;;5092119;28;20012;-49
2021/07/29 02:15:26;;;;;;;7.00;6.30;;;19.30;93.60;;;;;;5091613;28;20025;-49
2021/07/29 02:17:56;;;;;;;6.90;6.30;;;19.40;93.40;;;;;;5090841;28;20055;-50
2021/07/29 02:20:22;;;;;;;7.43;6.18;;;19.40;93.30;;;;;;5066548;28;20395;-47
2021/07/29 02:22:47;;;;;;;7.05;6.30;;;19.50;93.30;;;;;;5092221;28;20084;-48
2021/07/29 02:25:13;;;;;;;7.60;6.03;;;19.40;93.20;;;;;;5092097;28;20093;-46
2021/07/29 02:27:39;;;;;;;7.55;6.20;;;19.50;93.10;;;;;;5091853;28;20040;-47
2021/07/29 02:30:05;;;;;;;8.43;6.43;;;19.50;93.00;;;;;;5092289;28;20024;-46
2021/07/29 02:32:30;;;;;;;8.45;6.72;;;19.50;92.90;;;;;;5092095;28;20088;-47
2021/07/29 02:34:56;;;;;;;8.00;7.20;;;19.30;93.10;;;;;;5091980;28;20032;-50
2021/07/29 02:37:22;;;;;;;6.75;6.15;;;19.20;93.30;;;;;;5092404;28;20061;-49
2021/07/29 02:39:48;;;;;;;7.80;6.68;;;19.10;93.50;;;;;;5092013;28;20059;-49
2021/07/29 02:42:14;;;;;;;7.30;6.18;;;19.00;93.60;;;;;;5088339;28;20031;-48
2021/07/29 02:44:40;;;;;;;7.97;6.43;;;19.00;93.70;;;;;;5084994;28;20040;-51
2021/07/29 02:47:06;;;;;;;7.00;6.30;;;18.90;94.10;;;;;;5091747;28;20030;-48
2021/07/29 02:49:32;;;;;;;6.90;6.25;;;18.90;94.00;;;;;;5092079;28;20036;-48
2021/07/29 02:51:57;;;;;;;8.30;6.40;;;18.90;94.00;;;;;;5091332;28;20035;-49
2021/07/29 02:54:23;;;;;;;7.43;5.75;;;18.70;94.30;;;;;;5073620;28;20024;-45
2021/07/29 02:56:49;;;;;;;7.00;6.30;;;18.70;94.40;;;;;;5092120;28;20368;-47
2021/07/29 02:59:15;;;;;;;7.00;6.30;;;18.70;94.40;;;;;;5091713;28;20047;-47
2021/07/29 03:01:40;;;;;;;7.43;6.63;;;18.70;94.30;;;;;;5092007;28;20043;-50
2021/07/29 03:04:06;;;;;;;7.20;6.50;;;18.70;94.30;;;;;;5092009;28;20036;-46
2021/07/29 03:06:31;;;;;;;7.63;6.32;;;18.80;94.30;;;;;;5091581;28;20096;-50
2021/07/29 03:08:58;;;;;;;7.10;6.40;;;18.80;94.20;;;;;;5092566;28;20502;-49
2021/07/29 03:11:24;;;;;;;7.95;6.70;;;18.90;94.30;;;;;;5091436;28;20040;-48
2021/07/29 03:13:50;;;;;;;7.68;6.45;;;18.90;94.20;;;;;;5092617;28;20601;-50
2021/07/29 03:16:15;;;;;;;8.60;6.68;;;19.00;94.00;;;;;;5091855;28;20044;-49
2021/07/29 03:18:41;;;;;;;7.57;6.88;;;19.00;94.00;;;;;;5098518;28;20042;-48
2021/07/29 03:21:07;;;;;;;7.00;6.28;;;19.00;93.90;;;;;;5091541;28;20074;-49
2021/07/29 03:23:33;;;;;;;7.57;5.97;;;19.00;93.70;;;;;;5091540;28;20032;-48
2021/07/29 03:25:59;;;;;;;7.50;6.80;;;18.80;93.90;;;;;;5091498;28;20028;-51
2021/07/29 03:28:24;;;;;;;11.45;7.57;;;18.80;93.80;;;;;;5091471;28;20124;-45
2021/07/29 03:30:51;;;;;;;6.47;5.75;;;18.70;93.90;;;;;;5091235;28;20103;-48
2021/07/29 03:33:16;;;;;;;7.50;6.22;;;18.70;93.90;;;;;;5091257;28;20081;-48
2021/07/29 03:35:42;;;;;;;7.50;6.35;;;18.70;93.80;;;;;;5082088;28;20025;-48
2021/07/29 03:38:08;;;;;;;7.57;5.85;;;18.70;93.90;;;;;;5086238;28;20038;-50
2021/07/29 03:40:35;;;;;;;8.13;5.90;;;18.70;93.70;;;;;;5091815;28;20040;-46
2021/07/29 03:43:04;;;;;;;8.02;6.38;;;18.70;93.70;;;;;;5081073;28;20036;-46
2021/07/29 03:45:30;;;;;;;8.20;6.55;;;18.60;93.80;;;;;;5090686;28;20032;-50
2021/07/29 03:47:57;;;;;;;7.13;6.43;;;18.50;93.90;;;;;;5091724;28;20040;-47
2021/07/29 03:50:23;;;;;;;8.40;6.45;;;18.40;94.10;;;;;;5091492;28;20376;-46
2021/07/29 03:52:48;;;;;;;7.88;6.22;;;18.30;94.30;;;;;;5091573;28;20118;-48
2021/07/29 03:55:14;;;;;;;8.00;6.80;;;18.40;94.50;;;;;;5091094;28;20028;-47
2021/07/29 03:57:39;;;;;;;7.68;6.80;;;18.40;94.40;;;;;;5091617;28;20021;-50
2021/07/29 04:00:06;;;;;;;7.95;7.05;;;18.40;94.30;;;;;;5091173;28;20029;-49
2021/07/29 04:02:33;;;;;;;7.35;6.65;;;18.40;94.40;;;;;;5091303;28;20032;-48
2021/07/29 04:04:59;;;;;;;8.20;6.55;;;18.40;94.40;;;;;;5092687;28;20564;-46
2021/07/29 04:07:24;;;;;;;9.57;6.78;;;18.40;94.40;;;;;;5094676;28;20059;-50
2021/07/29 04:09:51;;;;;;;8.80;6.85;;;18.40;94.60;;;;;;5095150;28;20031;-50
2021/07/29 04:12:16;;;;;;;7.95;6.68;;;18.30;94.70;;;;;;5093949;28;20053;-48
2021/07/29 04:14:42;;;;;;;8.02;6.38;;;18.30;94.90;;;;;;5094987;28;20543;-46
2021/07/29 04:17:08;;;;;;;8.25;7.13;;;18.20;94.90;;;;;;5094944;28;20637;-46
2021/07/29 04:19:35;;;;;;;9.68;6.55;;;18.20;94.90;;;;;;5086932;28;20056;-47
2021/07/29 04:22:03;;;;;;;9.88;6.90;;;18.20;95.00;;;;;;5094933;28;20036;-48
2021/07/29 04:24:29;;;;;;;8.82;6.82;;;18.10;95.10;;;;;;5095190;28;20034;-49
2021/07/29 04:26:59;;;;;;;9.30;6.45;;;18.10;95.10;;;;;;5093971;28;20122;-51
2021/07/29 04:29:25;;;;;;;7.63;6.70;;;18.20;94.80;;;;;;5085900;28;20033;-47
2021/07/29 04:31:52;;;;;;;9.88;6.72;;;18.10;95.10;;;;;;5078813;28;20013;-51
2021/07/29 04:34:18;;;;;;;11.48;7.00;;;18.10;95.10;;;;;;5087015;28;20407;-49
2021/07/29 04:36:44;;;;;;;7.72;6.78;;;18.20;95.10;;;;;;5090965;28;20088;-46
2021/07/29 04:39:10;;;;;;;6.72;6.00;;;18.20;95.00;;;;;;5093093;28;20094;-49
2021/07/29 04:41:40;;;;;;;8.27;6.40;;;18.30;95.10;;;;;;5093832;28;20090;-50
2021/07/29 04:44:07;;;;;;;8.52;6.80;;;18.30;94.90;;;;;;5082768;28;20028;-49
2021/07/29 04:46:35;;;;;;;7.25;6.22;;;18.40;94.80;;;;;;5093338;28;20032;-51
2021/07/29 04:49:00;;;;;;;10.13;6.97;;;18.40;95.00;;;;;;5075982;28;20024;-46
2021/07/29 04:51:26;;;;;;;9.90;6.38;;;18.40;94.90;;;;;;5094311;28;20026;-46
2021/07/29 04:53:51;;;;;;;7.75;6.82;;;18.40;95.00;;;;;;5094043;28;20020;-48
2021/07/29 04:56:17;;;;;;;8.43;6.63;;;18.40;95.00;;;;;;5094183;28;20031;-52
2021/07/29 04:58:43;;;;;;;9.60;6.80;;;18.30;95.10;;;;;;5094107;28;20081;-48
2021/07/29 05:01:09;;;;;;;10.68;7.18;;;18.40;95.10;;;;;;5094185;28;20032;-51
2021/07/29 05:03:35;;;;;;;10.00;7.13;;;18.40;95.00;;;;;;5094261;28;20051;-47
2021/07/29 05:06:00;;;;;;;8.80;7.13;;;18.40;94.80;;;;;;5093592;28;20056;-48
2021/07/29 05:08:26;;;;;;;10.73;7.53;;;18.40;94.80;;;;;;5093546;28;20024;-48
2021/07/29 05:10:52;;;;;;;10.60;6.82;;;18.50;94.60;;;;;;5093890;28;20035;-50
2021/07/29 05:13:17;;;;;;;10.98;6.78;;;18.50;94.60;;;;;;5075733;28;20036;-54
2021/07/29 05:15:43;;;;;;;9.23;6.88;;;18.50;94.50;;;;;;5092733;28;20047;-53
2021/07/29 05:18:08;;;;;;;10.07;6.65;;;18.60;94.60;;;;;;5093360;28;20047;-49
2021/07/29 05:20:34;;;;;;;7.93;6.40;;;18.60;94.20;;;;;;5086047;28;20059;-54
2021/07/29 05:22:59;;;;;;;8.70;6.13;;;18.60;94.20;;;;;;5093356;28;20048;-47
2021/07/29 05:25:25;;;;;;;6.45;5.80;;;18.60;94.20;;;;;;5093425;28;20079;-48
2021/07/29 05:27:52;;;;;;;6.07;5.25;;;18.60;94.00;;;;;;5092544;28;20460;-53
2021/07/29 05:30:18;;;;;;;7.95;5.65;;;18.70;94.00;;;;;;5078763;28;20036;-48
2021/07/29 05:32:44;;;;;;;8.50;6.50;;;18.70;94.10;;;;;;5085909;28;20043;-51
2021/07/29 05:35:10;;;;;;;8.30;6.38;;;18.80;93.60;;;;;;5086654;28;20020;-51
2021/07/29 05:37:36;;;;;;;9.23;5.90;;;18.90;93.30;;;;;;5093244;28;20027;-50
2021/07/29 05:40:06;;;;;;;9.50;5.60;;;19.00;93.20;;;;;;5093186;28;20028;-46
2021/07/29 05:42:32;;;;;;;7.43;6.05;;;19.00;93.30;;;;;;5086586;28;20090;-46
2021/07/29 05:44:58;;;;;;;8.68;5.85;;;19.10;93.10;;;;;;5087019;28;20181;-47
2021/07/29 05:47:24;;;;;;;6.95;6.25;;;19.30;93.00;;;;;;5084557;28;20119;-46
2021/07/29 05:49:49;;;;;;;10.57;5.55;;;19.20;92.80;;;;;;5093039;28;20119;-46
2021/07/29 05:52:15;;;;;;;7.82;5.95;;;19.30;92.60;;;;;;5093053;28;20492;-49
2021/07/29 05:54:41;;;;;;;6.32;5.68;;;19.30;92.80;;;;;;5093056;28;20063;-53
2021/07/29 05:57:06;;;;;;;7.45;5.43;;;19.40;92.60;;;;;;5092316;28;20028;-49
2021/07/29 05:59:32;;;;;;;6.53;5.30;;;19.50;92.70;;;;;;5074960;28;20044;-49
2021/07/29 06:01:57;;;;;;;9.32;5.43;;;19.50;92.30;;;;;;5092501;28;20449;-50
2021/07/29 06:04:23;;;;;;;7.80;5.68;;;19.60;92.00;;;;;;5075459;28;20032;-54
2021/07/29 06:06:48;;;;;;;6.85;5.07;;;19.60;91.10;;;;;;5094014;28;20433;-48
2021/07/29 06:09:14;;;;;;;9.55;5.50;;;19.70;90.80;;;;;;5092857;28;20418;-50
2021/07/29 06:11:39;;;;;;;9.23;5.60;;;19.70;90.60;;;;;;5092293;28;20498;-48
2021/07/29 06:14:05;;;;;;;9.52;5.28;;;19.70;90.30;;;;;;5092168;28;20451;-52
2021/07/29 06:16:30;;;;;;;7.72;5.25;;;19.60;90.50;;;;;;5091661;28;20039;-50
2021/07/29 06:19:10;;;;;;;8.02;5.30;;;19.60;90.50;;;;;;5087674;28;20021;-52
2021/07/29 06:21:36;;;;;;;8.15;5.28;;;19.60;90.40;;;;;;5091152;28;20020;-50
2021/07/29 06:24:03;;;;;;;10.65;5.53;;;19.60;90.40;;;;;;5090669;28;20531;-48
2021/07/29 06:26:28;;;;;;;6.40;5.30;;;19.60;90.20;;;;;;5090804;28;20034;-47
2021/07/29 06:28:54;;;;;;;7.07;5.25;;;19.60;90.40;;;;;;5091037;28;20387;-47
2021/07/29 06:31:20;;;;;;;5.97;5.30;;;19.70;90.30;;;;;;5091751;28;20387;-49
2021/07/29 06:33:46;;;;;;;9.45;5.03;;;19.60;90.10;;;;;;5091739;28;20032;-50
2021/07/29 06:36:11;;;;;;;8.38;5.05;;;19.70;89.90;;;;;;5091456;28;20035;-47
2021/07/29 06:38:38;;;;;;;5.25;4.75;;;19.80;90.20;;;;;;5091323;28;20047;-47
2021/07/29 06:41:05;;;;;;;8.10;4.85;;;19.80;90.10;;;;;;5091128;28;20035;-49
2021/07/29 06:43:30;;;;;;;9.85;5.13;;;19.90;89.70;;;;;;5079623;28;20027;-48
2021/07/29 06:46:01;;;;;;;5.18;4.68;;;20.00;89.10;;;;;;5090982;28;20032;-51
2021/07/29 06:48:26;;;;;;;7.57;4.97;;;20.10;88.60;;;;;;5074137;28;20032;-47
2021/07/29 06:50:53;;;;;;;6.97;4.82;;;20.10;87.90;;;;;;5091534;28;20032;-50
2021/07/29 06:53:18;;;;;;;8.18;5.20;;;20.10;88.00;;;;;;5091432;28;20052;-51
2021/07/29 06:55:44;;;;;;;8.15;4.93;;;20.20;88.20;;;;;;5077346;28;20483;-47
2021/07/29 06:58:09;;;;;;;8.15;5.28;;;20.20;87.80;;;;;;5073677;28;20031;-46
2021/07/29 07:00:35;;;;;;;9.05;4.90;;;20.30;88.10;;;;;;5091445;28;20114;-46
2021/07/29 07:03:00;;;;;;;7.03;4.82;;;20.30;87.70;;;;;;5091709;28;20089;-51
2021/07/29 07:05:26;;;;;;;7.57;5.15;;;20.30;87.50;;;;;;5089743;28;20130;-46
2021/07/29 07:07:51;;;;;;;5.82;4.80;;;20.40;87.40;;;;;;5082244;28;20044;-47
2021/07/29 07:10:17;;;;;;;8.48;5.30;;;20.50;87.10;;;;;;5091912;28;20040;-52
2021/07/29 07:12:42;;;;;;;9.75;6.80;;;20.50;86.50;;;;;;5091751;28;20032;-50
2021/07/29 07:15:09;;;;;;;6.45;5.15;;;20.40;85.90;;;;;;5091778;28;20510;-50
2021/07/29 07:17:34;;;;;;;6.13;5.47;;;20.50;87.10;;;;;;5091204;28;20116;-48
2021/07/29 07:20:01;;;;;;;9.05;5.75;;;20.50;86.70;;;;;;5089517;28;20111;-46
2021/07/29 07:22:27;;;;;;;9.18;5.20;;;20.50;85.80;;;;;;5100048;28;20032;-46
2021/07/29 07:24:52;;;;;;;6.28;4.70;;;20.60;86.20;;;;;;5089636;28;20031;-46
2021/07/29 07:27:18;;;;;;;8.15;5.72;;;20.70;86.10;;;;;;5090516;28;20043;-50
2021/07/29 07:29:44;;;;;;;7.90;5.18;;;20.80;86.00;;;;;;5091308;28;20036;-46
2021/07/29 07:32:11;;;;;;;7.43;5.25;;;20.80;86.30;;;;;;5075056;28;20036;-51
2021/07/29 07:34:36;;;;;;;6.40;4.93;;;20.80;85.70;;;;;;5108838;28;20059;-46
2021/07/29 07:37:02;;;;;;;10.18;5.10;;;21.00;85.90;;;;;;5092317;28;20085;-49
2021/07/29 07:39:27;;;;;;;8.20;5.03;;;21.30;84.50;;;;;;5095354;28;20070;-52
2021/07/29 07:41:56;;;;;;;9.55;5.28;;;21.40;83.10;;;;;;5096763;28;20028;-49
2021/07/29 07:44:21;;;;;;;6.20;5.00;;;21.40;83.60;;;;;;5072408;28;20039;-49
2021/07/29 07:46:47;;;;;;;8.07;5.60;;;21.50;82.30;;;;;;5111491;28;20040;-48
2021/07/29 07:49:13;;;;;;;8.23;4.72;;;21.30;81.30;;;;;;5118179;28;20047;-46
2021/07/29 07:51:40;;;;;;;9.52;4.93;;;21.40;82.60;;;;;;5117559;28;20031;-47
2021/07/29 07:54:07;;;;;;;6.65;4.30;;;21.60;80.30;;;;;;5116320;28;20038;-50
2021/07/29 07:56:32;;;;;;;7.38;4.80;;;21.70;80.00;;;;;;5116457;28;20047;-47
2021/07/29 07:58:58;;;;;;;6.78;4.63;;;21.70;80.50;;;;;;5117148;28;20035;-50
2021/07/29 08:01:24;;;;;;;7.35;4.82;;;21.80;80.10;;;;;;5116559;28;20555;-46
2021/07/29 08:03:49;;;;;;;7.25;5.00;;;21.80;80.40;;;;;;5097937;28;20023;-52
2021/07/29 08:06:15;;;;;;;7.25;4.65;;;21.70;79.40;;;;;;5100932;28;20077;-54
2021/07/29 08:08:42;;;;;;;6.72;4.75;;;21.80;80.40;;;;;;5093527;28;20042;-54
2021/07/29 08:11:08;;;;;;;6.13;4.60;;;22.00;78.70;;;;;;5105657;28;20068;-51
2021/07/29 08:13:34;;;;;;;7.90;4.90;;;21.90;79.40;;;;;;5114738;28;20594;-52
2021/07/29 08:15:59;;;;;;;6.20;4.40;;;22.10;79.50;;;;;;5115910;28;20031;-56
2021/07/29 08:18:25;;;;;;;7.90;4.40;;;22.20;77.70;;;;;;5098158;28;20115;-51
2021/07/29 08:20:51;;;;;;;10.23;4.60;;;22.00;77.40;;;;;;5084596;28;20101;-54
2021/07/29 08:23:16;;;;;;;6.05;4.47;;;22.00;78.30;;;;;;5089851;28;20028;-52
2021/07/29 08:25:42;;;;;;;8.88;4.28;;;22.10;78.00;;;;;;5115936;28;20128;-47
2021/07/29 08:28:07;;;;;;;5.10;4.57;;;22.20;77.40;;;;;;5116137;28;20031;-52
2021/07/29 08:30:33;;;;;;;9.38;5.50;;;22.10;77.00;;;;;;5091890;28;20028;-54
2021/07/29 08:33:07;;;;;;;6.43;4.70;;;22.40;77.30;;;;;;5113140;28;20045;-54
2021/07/29 08:35:35;;;;;;;8.13;5.30;;;22.20;77.00;;;;;;5112730;28;20038;-55
2021/07/29 08:38:01;;;;;;;6.97;5.05;;;22.20;76.50;;;;;;5112587;28;20059;-54
2021/07/29 08:40:26;;;;;;;8.05;4.75;;;22.20;78.00;;;;;;5113802;28;20051;-53
2021/07/29 08:42:52;;;;;;;6.90;4.60;;;22.30;76.40;;;;;;5108366;28;20459;-55
2021/07/29 08:45:17;;;;;;;7.40;4.57;;;22.00;76.20;;;;;;5113109;28;20042;-54
2021/07/29 08:47:44;;;;;;;8.48;5.72;;;21.80;77.00;;;;;;5112792;28;20023;-53
2021/07/29 08:50:10;;;;;;;6.05;4.50;;;21.60;77.50;;;;;;5112296;28;20030;-48
2021/07/29 08:52:36;;;;;;;9.30;4.93;;;21.50;78.80;;;;;;5113763;28;20036;-50
2021/07/29 08:55:03;;;;;;;8.82;5.07;;;21.40;78.70;;;;;;5091193;28;20037;-53
2021/07/29 08:57:33;;;;;;;6.82;4.70;;;21.30;79.20;;;;;;5094510;28;20036;-50
2021/07/29 09:00:08;;;;;;;7.80;4.32;;;21.30;79.60;;;;;;5111212;28;20115;-50
2021/07/29 09:02:34;;;;;;;7.70;4.70;;;21.30;79.80;;;;;;5105371;28;20036;-51
2021/07/29 09:05:10;;;;;;;5.00;4.45;;;21.40;79.10;;;;;;5076255;28;20034;-48
2021/07/29 09:07:36;;;;;;;7.00;5.15;;;21.40;79.20;;;;;;5086906;28;20414;-46
2021/07/29 09:10:16;;;;;;;9.32;5.05;;;21.50;79.40;;;;;;5089539;28;20155;-50
2021/07/29 09:12:42;;;;;;;10.45;4.80;;;21.70;79.10;;;;;;5092398;28;20063;-47
2021/07/29 09:15:20;;;;;;;6.72;5.13;;;21.60;78.60;;;;;;5091680;28;20047;-57
2021/07/29 09:17:46;;;;;;;13.05;5.70;;;21.60;77.90;;;;;;5075659;28;20081;-55
2021/07/29 09:20:19;;;;;;;7.03;4.70;;;21.80;78.40;;;;;;5100054;28;20027;-47
2021/07/29 09:22:51;;;;;;;8.75;4.50;;;22.00;78.60;;;;;;5100084;28;20055;-48
2021/07/29 09:25:19;;;;;;;8.90;4.60;;;22.10;76.70;;;;;;5104915;28;20388;-47
2021/07/29 09:27:50;;;;;;;8.73;4.45;;;22.40;76.40;;;;;;5073968;28;20437;-50
2021/07/29 09:30:24;;;;;;;6.55;5.10;;;22.50;74.40;;;;;;5074712;28;20116;-50
2021/07/29 09:32:59;;;;;;;;;;;22.60;72.90;;;;;;5094284;28;20024;-50
2021/07/29 09:35:32;;;;;;;6.45;4.78;;;22.70;73.50;;;;;;5092787;28;19910;-47
2021/07/29 09:38:05;;;;;;;6.13;4.45;;;22.80;72.30;;;;;;5092997;28;20028;-47
2021/07/29 09:40:56;;;;;;;7.30;4.57;;;22.90;71.30;;;;;;5074199;28;20402;-48
2021/07/29 09:43:29;;;;;;;13.23;5.40;;;23.00;71.50;;;;;;5070583;28;20398;-53
2021/07/29 09:45:56;;;;;;;11.00;5.20;;;22.90;70.60;;;;;;5092239;28;20024;-53
2021/07/29 09:48:23;;;;;;;8.65;4.68;;;23.00;70.10;;;;;;5093734;28;20475;-50
2021/07/29 09:50:58;;;;;;;10.20;5.40;;;23.10;70.30;;;;;;5092643;28;20114;-51
2021/07/29 09:53:23;;;;;;;7.80;5.00;;;23.10;68.50;;;;;;5088329;28;20032;-48
2021/07/29 09:55:49;;;;;;;8.27;5.45;;;22.90;68.70;;;;;;5089411;28;20036;-47
2021/07/29 09:58:15;;;;;;;10.10;5.05;;;22.70;68.50;;;;;;5092685;28;20059;-48
2021/07/29 10:00:41;;;;;;;5.88;4.90;;;22.50;69.00;;;;;;5098113;28;20035;-49
2021/07/29 10:03:08;;;;;;;7.75;5.45;;;22.40;70.10;;;;;;5110981;28;20028;-48
2021/07/29 10:06:00;;;;;;;7.53;4.90;;;22.30;68.90;;;;;;5111519;28;20027;-51
2021/07/29 10:08:43;;;;;;;6.18;4.97;;;22.20;70.10;;;;;;5087650;28;20399;-47
2021/07/29 10:11:15;;;;;;;11.07;5.20;;;22.20;70.90;;;;;;5103586;28;20024;-51
2021/07/29 10:13:41;;;;;;;10.75;5.18;;;22.20;70.90;;;;;;5092624;28;20133;-51
2021/07/29 10:16:16;;;;;;;6.80;5.07;;;22.30;70.60;;;;;;5092347;28;20028;-54
2021/07/29 10:18:50;;;;;;;9.43;5.38;;;22.20;70.20;;;;;;5086052;28;20070;-54
2021/07/29 10:21:30;;;;;;;8.68;5.15;;;22.20;70.80;;;;;;5088211;28;20028;-55
2021/07/29 10:23:56;;;;;;;9.30;5.05;;;22.10;70.90;;;;;;5058981;28;20032;-53
2021/07/29 10:26:22;;;;;;;9.32;5.15;;;22.20;70.50;;;;;;5104445;28;20091;-48
2021/07/29 10:28:48;;;;;;;7.03;4.70;;;22.40;70.70;;;;;;5092432;28;20071;-47
2021/07/29 10:31:17;;;;;;;7.68;4.78;;;22.50;69.60;;;;;;5091970;28;20020;-50
2021/07/29 10:33:46;;;;;;;8.90;5.10;;;22.30;68.80;;;;;;5092223;28;20426;-49
2021/07/29 10:36:42;;;;;;;7.00;4.07;;;22.20;68.80;;;;;;5083076;28;20033;-47
2021/07/29 10:39:08;;;;;;;6.65;4.85;;;22.00;68.60;;;;;;5080428;28;20081;-47
2021/07/29 10:41:33;;;;;;;9.68;4.80;;;22.20;69.00;;;;;;5074619;28;20016;-46
2021/07/29 10:43:59;;;;;;;6.72;4.38;;;22.50;67.90;;;;;;5081169;28;20034;-47
2021/07/29 10:47:07;;;;;;;11.13;4.40;;;22.70;65.40;;;;;;5058609;28;20389;-46
2021/07/29 10:49:45;;;;;;;6.47;3.92;;;22.90;66.10;;;;;;5084361;28;20064;-49
2021/07/29 10:52:15;;;;;;;7.15;4.05;;;23.20;60.90;;;;;;5085165;28;20034;-48
2021/07/29 11:01:49;;;;;;;5.65;4.00;;;23.30;61.00;;;;;;5086714;28;20118;-51
2021/07/29 11:04:15;;;;;;;5.35;3.90;;;22.90;61.60;;;;;;5088388;28;20036;-47
2021/07/29 11:06:44;;;;;;;7.18;3.88;;;22.90;62.10;;;;;;5090886;28;20039;-50
2021/07/29 11:09:15;;;;;;;6.43;3.95;;;22.70;63.00;;;;;;5098358;28;20028;-47
2021/07/29 11:11:43;;;;;;;6.43;3.95;;;22.70;64.10;;;;;;5099164;28;20043;-47
2021/07/29 11:14:10;;;;;;;5.30;3.97;;;22.90;64.90;;;;;;5075682;28;20034;-51
2021/07/29 11:16:37;;;;;;;6.80;4.07;;;23.10;64.70;;;;;;5095960;28;20028;-46
2021/07/29 11:19:04;;;;;;;5.18;3.90;;;23.10;65.20;;;;;;5094106;28;20031;-51
2021/07/29 11:21:31;;;;;;;5.55;4.00;;;23.20;63.50;;;;;;5077505;28;20020;-45
2021/07/29 11:23:56;;;;;;;9.25;4.40;;;23.10;64.50;;;;;;5093967;28;20028;-53
2021/07/29 11:26:22;;;;;;;4.68;4.00;;;23.10;65.00;;;;;;5083447;28;20028;-47
2021/07/29 11:29:08;;;;;;;6.55;4.00;;;23.10;64.80;;;;;;5095743;28;20036;-48
2021/07/29 11:31:41;;;;;;;5.68;4.10;;;23.00;63.30;;;;;;5093450;28;20028;-46
2021/07/29 11:34:07;;;;;;;6.30;4.10;;;23.00;63.10;;;;;;5095842;28;20055;-48
2021/07/29 11:36:34;;;;;;;7.13;4.20;;;23.00;64.20;;;;;;5077391;28;20032;-52
2021/07/29 11:39:05;;;;;;;8.48;4.32;;;23.00;64.20;;;;;;5096425;28;20377;-50
2021/07/29 11:41:50;;;;;;;5.45;3.90;;;23.10;65.50;;;;;;5081576;28;20535;-54
2021/07/29 11:44:15;;;;;;;7.43;4.63;;;23.30;64.20;;;;;;5090687;28;20036;-52
2021/07/29 11:46:55;;;;;;;6.60;4.22;;;23.40;64.40;;;;;;5095202;28;20093;-51
2021/07/29 11:49:21;;;;;;;7.80;4.40;;;23.50;64.20;;;;;;5095171;28;20036;-49
2021/07/29 11:52:09;;;;;;;8.77;4.35;;;23.30;64.00;;;;;;5095107;28;20558;-50
2021/07/29 11:54:35;;;;;;;7.85;4.38;;;23.20;65.40;;;;;;5095199;28;20062;-49
2021/07/29 11:57:02;;;;;;;7.05;4.50;;;23.30;63.90;;;;;;5094570;28;20020;-48
2021/07/29 11:59:46;;;;;;;7.10;4.80;;;23.30;65.10;;;;;;5077164;28;20368;-50
2021/07/29 12:02:12;;;;;;;5.82;3.67;;;23.30;65.40;;;;;;5083303;28;20075;-53
2021/07/29 12:04:42;;;;;;;5.70;4.07;;;23.20;62.80;;;;;;5060308;28;20464;-56
2021/07/29 12:07:10;;;;;;;8.43;4.35;;;23.30;64.20;;;;;;5094938;28;20040;-53
2021/07/29 12:09:40;;;;;;;7.18;4.30;;;23.30;64.10;;;;;;5094937;28;20032;-53
2021/07/29 12:12:06;;;;;;;10.20;4.60;;;23.20;63.80;;;;;;5094843;28;20028;-52
2021/07/29 12:14:32;;;;;;;8.10;4.45;;;23.10;65.30;;;;;;5094954;28;20391;-50
2021/07/29 12:16:58;;;;;;;7.82;4.38;;;23.10;65.30;;;;;;5094386;28;20031;-49
2021/07/29 12:19:24;;;;;;;7.63;4.55;;;23.20;64.60;;;;;;5093530;28;20032;-53
2021/07/29 12:21:51;;;;;;;8.13;4.57;;;23.20;64.40;;;;;;5076945;28;20059;-48
2021/07/29 12:24:17;;;;;;;5.85;3.95;;;23.30;63.90;;;;;;5076631;28;20182;-48
2021/07/29 12:27:06;;;;;;;7.72;4.25;;;23.40;64.10;;;;;;5092675;28;20044;-48
2021/07/29 12:29:43;;;;;;;8.75;4.50;;;23.60;64.30;;;;;;5082780;28;20028;-54
2021/07/29 12:32:29;;;;;;;7.60;4.50;;;23.80;65.00;;;;;;5094676;28;20028;-50
2021/07/29 12:34:55;;;;;;;8.02;4.90;;;24.00;64.10;;;;;;5077028;28;20035;-53
2021/07/29 12:37:35;;;;;;;5.32;3.97;;;24.20;64.00;;;;;;5094141;28;20033;-49
2021/07/29 12:40:01;;;;;;;7.55;4.70;;;24.00;64.20;;;;;;5094317;28;20395;-51
2021/07/29 12:42:31;;;;;;;6.80;4.78;;;23.60;64.30;;;;;;5082472;28;20044;-49
2021/07/29 12:44:56;;;;;;;9.32;4.43;;;23.60;64.90;;;;;;5089565;28;20055;-53
2021/07/29 12:47:22;;;;;;;7.18;4.25;;;23.40;65.50;;;;;;5094030;28;20518;-48
2021/07/29 12:49:48;;;;;;;7.20;4.25;;;23.60;66.10;;;;;;5093221;28;20028;-49
2021/07/29 12:52:21;;;;;;;9.15;3.97;;;23.60;64.00;;;;;;5075867;28;20111;-47
2021/07/29 12:55:07;;;;;;;6.25;4.10;;;23.60;63.40;;;;;;5067239;28;20075;-55
2021/07/29 12:58:09;;;;;;;6.20;4.45;;;23.50;63.70;;;;;;5090104;28;20033;-50